Time;durP1;ratioP1;P1;durP2;ratioP2;P2;SDS_P1;SDS_P2;PMS_P1;PMS_P2;Temp;Humidity;BMP_temperature;BMP_pressure;BME280_temperature;BME280_humidity;BME280_pressure;Samples;Min_cycle;Max_cycle;Signal;HPM_P1;HPM_P2
2023/01/25 00:01:53;;;;;;;43.95;34.50;;;0.90;99.90;;;;;;6217550;23;20016;-88
2023/01/25 00:04:19;;;;;;;42.63;35.80;;;0.90;99.90;;;;;;6191240;23;20013;-90
2023/01/25 00:06:45;;;;;;;41.92;34.45;;;0.90;99.90;;;;;;6191039;23;20013;-87
2023/01/25 00:09:12;;;;;;;40.90;34.10;;;0.80;99.90;;;;;;6191440;23;20009;-88
2023/01/25 00:11:37;;;;;;;41.78;34.92;;;0.80;99.90;;;;;;6216590;23;20043;-87
2023/01/25 00:14:04;;;;;;;45.90;37.40;;;0.80;99.90;;;;;;6215208;23;20104;-87
2023/01/25 00:16:30;;;;;;;44.63;36.00;;;0.80;99.90;;;;;;6195979;23;20036;-87
2023/01/25 00:18:55;;;;;;;41.83;34.28;;;0.80;99.90;;;;;;6223651;23;20016;-87
2023/01/25 00:21:23;;;;;;;43.55;35.35;;;0.80;99.90;;;;;;6190836;23;20009;-87
2023/01/25 00:23:49;;;;;;;44.90;35.92;;;0.80;99.90;;;;;;6190836;23;20019;-87
2023/01/25 00:26:16;;;;;;;45.25;36.33;;;0.80;99.90;;;;;;6214816;23;20024;-87
2023/01/25 00:28:42;;;;;;;44.85;36.10;;;0.80;99.90;;;;;;6217194;23;20005;-86
2023/01/25 00:31:14;;;;;;;45.50;36.65;;;0.70;99.90;;;;;;6189858;23;20366;-86
2023/01/25 00:33:49;;;;;;;42.13;35.38;;;0.70;99.90;;;;;;6216447;23;20044;-87
2023/01/25 00:36:37;;;;;;;44.72;36.50;;;0.70;99.90;;;;;;6214905;23;20092;-87
2023/01/25 00:39:11;;;;;;;47.38;39.22;;;1.10;99.90;;;;;;6214704;23;20143;-88
2023/01/25 00:41:37;;;;;;;46.28;38.13;;;0.90;99.90;;;;;;6216377;23;20012;-87
2023/01/25 00:44:03;;;;;;;48.42;36.70;;;0.80;99.90;;;;;;6189529;23;20387;-87
2023/01/25 00:46:28;;;;;;;47.17;38.58;;;0.80;99.90;;;;;;6189584;23;20061;-87
2023/01/25 00:48:54;;;;;;;48.05;39.08;;;0.80;99.90;;;;;;6188470;23;20066;-87
2023/01/25 00:51:21;;;;;;;47.42;38.35;;;1.20;99.90;;;;;;6213703;23;20021;-88
2023/01/25 00:53:47;;;;;;;48.97;39.35;;;0.80;99.90;;;;;;6189130;23;20012;-88
2023/01/25 00:56:12;;;;;;;46.63;37.83;;;0.80;99.90;;;;;;6214132;23;20008;-88
2023/01/25 00:58:40;;;;;;;50.67;39.40;;;0.80;99.90;;;;;;6191319;23;20016;-87
2023/01/25 01:01:05;;;;;;;48.53;38.47;;;0.90;99.90;;;;;;6216288;23;20087;-87
2023/01/25 01:03:31;;;;;;;50.13;39.55;;;0.90;99.90;;;;;;6191760;23;20016;-87
2023/01/25 01:06:02;;;;;;;45.90;37.35;;;0.90;99.90;;;;;;6219389;23;20038;-88
2023/01/25 01:08:28;;;;;;;45.92;38.10;;;0.90;99.90;;;;;;6215077;23;20008;-88
2023/01/25 01:11:02;;;;;;;51.80;40.70;;;0.90;99.90;;;;;;6189155;23;20009;-87
2023/01/25 01:13:28;;;;;;;49.42;40.13;;;0.90;99.90;;;;;;6189048;23;20009;-88
2023/01/25 01:15:54;;;;;;;49.60;40.42;;;0.90;99.90;;;;;;6189410;23;20013;-88
2023/01/25 01:18:20;;;;;;;49.83;41.25;;;0.90;99.90;;;;;;6213295;23;20093;-88
2023/01/25 01:20:49;;;;;;;50.22;41.22;;;0.90;99.90;;;;;;6189208;23;20012;-87
2023/01/25 01:23:14;;;;;;;52.60;40.80;;;0.90;99.90;;;;;;6216597;23;20403;-88
2023/01/25 01:25:40;;;;;;;51.90;41.03;;;0.90;99.90;;;;;;6214917;23;20091;-88
2023/01/25 01:28:05;;;;;;;55.00;42.92;;;1.40;99.90;;;;;;6189574;23;20451;-87
2023/01/25 01:30:31;;;;;;;53.63;43.10;;;0.90;99.90;;;;;;6190970;23;20012;-88
2023/01/25 01:32:57;;;;;;;52.95;42.72;;;0.80;99.90;;;;;;6190210;23;20016;-87
2023/01/25 01:35:22;;;;;;;59.60;45.17;;;1.30;99.90;;;;;;6189781;23;20436;-87
2023/01/25 01:37:48;;;;;;;55.40;43.45;;;0.90;99.90;;;;;;6188407;23;20123;-88
2023/01/25 01:40:14;;;;;;;59.92;44.90;;;0.70;99.90;;;;;;6214168;23;20070;-88
2023/01/25 01:42:57;;;;;;;57.50;45.47;;;0.80;99.90;;;;;;6189439;23;20021;-88
2023/01/25 01:45:42;;;;;;;56.53;44.63;;;1.10;99.90;;;;;;6214047;23;20013;-87
2023/01/25 01:48:17;;;;;;;58.15;45.05;;;0.80;99.90;;;;;;6213339;23;20400;-87
2023/01/25 01:50:43;;;;;;;57.40;44.97;;;0.80;99.90;;;;;;6213308;23;20490;-88
2023/01/25 01:53:09;;;;;;;57.58;44.40;;;0.80;99.90;;;;;;6191311;23;20013;-88
2023/01/25 01:55:35;;;;;;;59.85;45.78;;;0.90;99.90;;;;;;6188901;23;20013;-88
2023/01/25 01:58:02;;;;;;;57.97;44.70;;;0.90;99.90;;;;;;6216244;23;20017;-90
2023/01/25 02:00:38;;;;;;;59.00;44.25;;;0.80;99.90;;;;;;6192021;23;20028;-88
2023/01/25 02:03:04;;;;;;;60.97;46.53;;;1.00;99.90;;;;;;6191555;23;20016;-88
2023/01/25 02:05:34;;;;;;;61.83;47.95;;;0.90;99.90;;;;;;6215580;23;20019;-88
2023/01/25 02:08:04;;;;;;;61.70;46.83;;;0.90;99.90;;;;;;6191087;23;20020;-87
2023/01/25 02:10:30;;;;;;;61.58;46.70;;;0.90;99.90;;;;;;6190765;23;20032;-88
2023/01/25 02:12:57;;;;;;;60.75;46.58;;;0.90;99.90;;;;;;6219793;23;20068;-88
2023/01/25 02:15:26;;;;;;;58.67;45.90;;;0.90;99.90;;;;;;6196377;23;20028;-87
2023/01/25 02:17:53;;;;;;;57.35;45.42;;;0.80;99.90;;;;;;6193659;23;20040;-87
2023/01/25 02:20:30;;;;;;;57.63;44.58;;;0.80;99.90;;;;;;6195572;23;20016;-88
2023/01/25 02:22:59;;;;;;;64.18;46.88;;;0.80;99.90;;;;;;6195546;23;20017;-88
2023/01/25 02:25:26;;;;;;;61.13;47.15;;;0.80;99.90;;;;;;6194090;23;20017;-88
2023/01/25 02:28:15;;;;;;;62.53;47.30;;;0.80;99.90;;;;;;6194752;23;20060;-88
2023/01/25 02:30:42;;;;;;;62.95;48.55;;;0.80;99.90;;;;;;6193929;23;20064;-88
2023/01/25 02:33:08;;;;;;;62.42;48.03;;;0.80;99.90;;;;;;6195590;23;20316;-89
2023/01/25 02:35:44;;;;;;;61.38;48.08;;;0.80;99.90;;;;;;6193822;23;20017;-88
2023/01/25 02:38:12;;;;;;;59.40;46.90;;;0.80;99.90;;;;;;6196500;23;20051;-87
2023/01/25 02:40:59;;;;;;;67.13;49.38;;;0.80;99.90;;;;;;6223870;23;20013;-86
2023/01/25 02:43:28;;;;;;;62.58;47.97;;;1.30;99.90;;;;;;6195985;23;20027;-88
2023/01/25 02:46:02;;;;;;;67.15;49.40;;;0.80;99.90;;;;;;6195571;23;20443;-88
2023/01/25 02:48:27;;;;;;;62.53;47.53;;;0.80;99.90;;;;;;6220899;23;20028;-88
2023/01/25 02:50:53;;;;;;;62.95;48.15;;;0.80;99.90;;;;;;6220072;23;20427;-87
2023/01/25 02:53:19;;;;;;;64.07;48.78;;;1.30;99.90;;;;;;6196941;23;20015;-87
2023/01/25 02:55:44;;;;;;;65.50;48.83;;;0.80;99.90;;;;;;6221565;23;20051;-87
2023/01/25 02:58:10;;;;;;;68.22;50.25;;;0.80;99.90;;;;;;6220973;23;20035;-89
2023/01/25 03:00:36;;;;;;;69.72;51.30;;;0.70;99.90;;;;;;6197891;23;20317;-88
2023/01/25 03:03:01;;;;;;;66.95;49.95;;;0.80;99.90;;;;;;6199063;23;20016;-88
2023/01/25 03:05:27;;;;;;;66.75;50.90;;;0.80;99.90;;;;;;6197347;23;20084;-88
2023/01/25 03:07:52;;;;;;;66.93;49.50;;;0.70;99.90;;;;;;6198156;23;20016;-87
2023/01/25 03:10:18;;;;;;;66.18;49.75;;;0.80;99.90;;;;;;6222655;23;20013;-88
2023/01/25 03:12:44;;;;;;;72.95;51.30;;;0.80;99.90;;;;;;6197196;23;20027;-87
2023/01/25 03:15:09;;;;;;;69.22;49.45;;;0.80;99.90;;;;;;6196299;23;20012;-88
2023/01/25 03:17:35;;;;;;;69.22;51.67;;;0.80;99.90;;;;;;6195782;23;20035;-88
2023/01/25 03:20:01;;;;;;;69.28;51.95;;;0.70;99.90;;;;;;6195397;23;20017;-88
2023/01/25 03:22:26;;;;;;;75.28;53.05;;;0.70;99.90;;;;;;6195433;23;20009;-88
2023/01/25 03:24:52;;;;;;;70.43;51.13;;;0.70;99.90;;;;;;6198240;23;20060;-87
2023/01/25 03:27:17;;;;;;;70.13;51.72;;;0.70;99.90;;;;;;6197913;23;20064;-87
2023/01/25 03:29:44;;;;;;;76.35;54.42;;;0.70;99.90;;;;;;6196198;23;20016;-88
2023/01/25 03:32:10;;;;;;;72.05;52.45;;;0.70;99.90;;;;;;6221009;23;20513;-88
2023/01/25 03:34:36;;;;;;;74.38;51.90;;;0.70;99.90;;;;;;6220238;23;20052;-88
2023/01/25 03:37:02;;;;;;;72.93;53.05;;;0.70;99.90;;;;;;6196108;23;20012;-88
2023/01/25 03:39:28;;;;;;;74.55;53.58;;;0.70;99.90;;;;;;6195083;23;20469;-88
2023/01/25 03:41:53;;;;;;;72.40;53.95;;;0.70;99.90;;;;;;6195929;23;20013;-88
2023/01/25 03:44:19;;;;;;;71.88;52.92;;;0.70;99.90;;;;;;6195591;23;20016;-88
2023/01/25 03:46:45;;;;;;;77.20;55.35;;;0.70;99.90;;;;;;6220061;23;20020;-86
2023/01/25 03:49:11;;;;;;;71.30;52.65;;;0.70;99.90;;;;;;6194938;23;20060;-88
2023/01/25 03:51:37;;;;;;;79.00;55.15;;;0.70;99.90;;;;;;6171314;23;20012;-87
2023/01/25 03:54:03;;;;;;;76.50;56.28;;;0.70;99.90;;;;;;6171120;23;20035;-88
2023/01/25 03:56:29;;;;;;;81.38;56.67;;;0.70;99.90;;;;;;6196172;23;20147;-88
2023/01/25 03:58:55;;;;;;;77.03;55.95;;;0.70;99.90;;;;;;6170134;23;20017;-87
2023/01/25 04:01:20;;;;;;;75.32;55.25;;;0.70;99.90;;;;;;6196506;23;20009;-88
2023/01/25 04:03:46;;;;;;;81.13;58.70;;;0.70;99.90;;;;;;6171757;23;20091;-88
2023/01/25 04:06:11;;;;;;;79.80;57.67;;;0.70;99.90;;;;;;6170803;23;20024;-88
2023/01/25 04:08:37;;;;;;;81.93;57.33;;;0.80;99.90;;;;;;6169986;23;20016;-88
2023/01/25 04:11:06;;;;;;;80.32;57.13;;;1.00;99.90;;;;;;6171034;23;20017;-88
2023/01/25 04:13:35;;;;;;;78.45;56.38;;;0.70;99.90;;;;;;6173342;23;20036;-88
2023/01/25 04:16:05;;;;;;;78.80;55.47;;;0.70;99.90;;;;;;6196107;23;20043;-87
2023/01/25 04:18:31;;;;;;;75.90;56.72;;;0.60;99.90;;;;;;6170581;23;20017;-87
2023/01/25 04:20:57;;;;;;;80.50;55.75;;;0.70;99.90;;;;;;6171065;23;20016;-88
2023/01/25 04:23:24;;;;;;;76.60;55.50;;;0.60;99.90;;;;;;6170676;23;20013;-87
2023/01/25 04:26:03;;;;;;;82.53;57.47;;;0.60;99.90;;;;;;6196549;23;20028;-87
2023/01/25 04:28:30;;;;;;;80.32;58.05;;;0.60;99.90;;;;;;6170187;23;20066;-88
2023/01/25 04:30:56;;;;;;;77.93;56.67;;;0.50;99.90;;;;;;6195844;23;20015;-87
2023/01/25 04:33:22;;;;;;;76.35;55.53;;;0.50;99.90;;;;;;6195844;23;20015;-88
2023/01/25 04:35:48;;;;;;;77.93;55.72;;;0.40;99.90;;;;;;6170256;23;20008;-88
2023/01/25 04:38:14;;;;;;;81.22;57.33;;;0.40;99.90;;;;;;6171171;23;20024;-88
2023/01/25 04:40:40;;;;;;;75.00;55.97;;;0.40;99.90;;;;;;6195362;23;20090;-88
2023/01/25 04:43:06;;;;;;;74.10;55.15;;;0.30;99.90;;;;;;6190178;23;20062;-86
2023/01/25 04:45:32;;;;;;;79.45;58.17;;;0.30;99.90;;;;;;6165032;23;20063;-88
2023/01/25 04:48:02;;;;;;;78.00;57.28;;;0.30;99.90;;;;;;6189412;23;20348;-88
2023/01/25 04:50:28;;;;;;;82.03;58.65;;;0.30;99.90;;;;;;6189586;23;20040;-88
2023/01/25 04:52:54;;;;;;;83.07;58.38;;;0.30;99.90;;;;;;6190131;23;20041;-88
2023/01/25 04:55:20;;;;;;;83.97;59.15;;;0.30;99.90;;;;;;6215479;23;20422;-89
2023/01/25 04:57:49;;;;;;;85.40;59.60;;;0.50;99.90;;;;;;6215952;23;20013;-87
2023/01/25 05:00:15;;;;;;;80.78;57.33;;;0.30;99.90;;;;;;6194397;23;20043;-88
2023/01/25 05:02:41;;;;;;;77.53;56.85;;;0.30;99.90;;;;;;6191090;23;20020;-88
2023/01/25 05:05:08;;;;;;;76.80;56.33;;;0.30;99.90;;;;;;6213707;23;20441;-89
2023/01/25 05:07:33;;;;;;;85.53;59.92;;;0.30;99.90;;;;;;6190091;23;20017;-88
2023/01/25 05:09:59;;;;;;;78.63;57.50;;;0.30;99.90;;;;;;6214442;23;20029;-88
2023/01/25 05:12:24;;;;;;;84.78;59.67;;;0.30;99.90;;;;;;6190754;23;20013;-90
2023/01/25 05:14:50;;;;;;;79.97;57.70;;;0.30;99.90;;;;;;6189597;23;20317;-87
2023/01/25 05:17:16;;;;;;;79.35;57.95;;;0.30;99.90;;;;;;6187530;23;20329;-88
2023/01/25 05:19:41;;;;;;;91.05;59.22;;;0.30;99.90;;;;;;6187827;23;20048;-89
2023/01/25 05:22:16;;;;;;;85.35;60.63;;;0.30;99.90;;;;;;6189104;23;20031;-88
2023/01/25 05:24:43;;;;;;;84.93;59.28;;;0.20;99.90;;;;;;6187886;23;20013;-87
2023/01/25 05:27:11;;;;;;;82.85;59.30;;;0.20;99.90;;;;;;6187032;23;20009;-86
2023/01/25 05:29:38;;;;;;;86.07;60.55;;;0.30;99.90;;;;;;6211780;23;20020;-88
2023/01/25 05:32:10;;;;;;;80.93;59.00;;;0.30;99.90;;;;;;6187178;23;20011;-87
2023/01/25 05:34:36;;;;;;;84.32;58.33;;;0.30;99.90;;;;;;6213258;23;20017;-88
2023/01/25 05:37:04;;;;;;;89.03;62.05;;;0.30;99.90;;;;;;6187238;23;20013;-89
2023/01/25 05:39:29;;;;;;;85.97;61.10;;;0.30;99.90;;;;;;6188634;23;20092;-87
2023/01/25 05:41:55;;;;;;;87.75;62.38;;;0.30;99.90;;;;;;6188478;23;20040;-88
2023/01/25 05:44:21;;;;;;;88.80;64.10;;;0.50;99.90;;;;;;6190793;23;20040;-88
2023/01/25 05:46:47;;;;;;;86.45;60.30;;;0.30;99.90;;;;;;6220477;23;20133;-88
2023/01/25 05:49:14;;;;;;;85.57;59.72;;;0.30;99.90;;;;;;6192790;23;20375;-88
2023/01/25 05:51:39;;;;;;;86.55;61.58;;;0.30;99.90;;;;;;6192557;23;20447;-88
2023/01/25 05:54:06;;;;;;;84.95;61.00;;;0.90;99.90;;;;;;6216771;23;20009;-88
2023/01/25 05:56:33;;;;;;;84.47;59.88;;;0.40;99.90;;;;;;6192487;23;20064;-84
2023/01/25 05:59:00;;;;;;;83.97;59.42;;;0.80;99.90;;;;;;6239115;23;20017;-86
2023/01/25 06:01:26;;;;;;;85.30;59.03;;;0.40;99.90;;;;;;6213342;23;20023;-84
2023/01/25 06:03:52;;;;;;;77.25;57.88;;;0.40;99.90;;;;;;6212535;23;20040;-87
2023/01/25 06:06:19;;;;;;;76.97;56.47;;;0.40;99.90;;;;;;6191107;23;20068;-88
2023/01/25 06:08:45;;;;;;;79.15;55.83;;;0.40;99.90;;;;;;6217445;23;20013;-88
2023/01/25 06:11:17;;;;;;;77.07;55.85;;;0.30;99.90;;;;;;6216945;23;20005;-87
2023/01/25 06:13:44;;;;;;;76.78;55.90;;;0.90;99.90;;;;;;6192657;23;20071;-87
2023/01/25 06:16:10;;;;;;;72.20;54.58;;;0.30;99.90;;;;;;6220051;23;20032;-87
2023/01/25 06:18:35;;;;;;;72.00;53.70;;;0.30;99.90;;;;;;6194768;23;20068;-88
2023/01/25 06:21:02;;;;;;;77.03;55.60;;;0.20;99.90;;;;;;6244632;23;20020;-88
2023/01/25 06:23:28;;;;;;;74.57;53.88;;;0.20;99.90;;;;;;6193563;23;20095;-87
2023/01/25 06:25:58;;;;;;;76.30;54.17;;;0.20;99.90;;;;;;6218846;23;20067;-88
2023/01/25 06:28:24;;;;;;;70.25;52.83;;;0.20;99.90;;;;;;6218416;23;20013;-88
2023/01/25 06:30:49;;;;;;;70.13;53.85;;;0.20;99.90;;;;;;6194319;23;20212;-87
2023/01/25 06:33:15;;;;;;;70.80;53.88;;;0.20;99.90;;;;;;6229827;23;20009;-87
2023/01/25 06:35:42;;;;;;;72.47;54.13;;;0.20;99.90;;;;;;6195268;23;20012;-87
2023/01/25 06:38:07;;;;;;;71.95;54.20;;;0.20;99.90;;;;;;6194696;23;20099;-87
2023/01/25 06:40:33;;;;;;;73.50;53.00;;;0.20;99.90;;;;;;6194945;23;20012;-88
2023/01/25 06:43:06;;;;;;;69.35;53.08;;;0.20;99.90;;;;;;6219217;23;20020;-87
2023/01/25 06:45:32;;;;;;;69.00;52.72;;;0.60;99.90;;;;;;6195200;23;20040;-87
2023/01/25 06:47:58;;;;;;;65.75;51.15;;;0.10;99.90;;;;;;6218288;23;20078;-88
2023/01/25 06:50:23;;;;;;;67.70;52.53;;;0.20;99.90;;;;;;6193321;23;20008;-88
2023/01/25 06:52:53;;;;;;;64.80;50.65;;;0.20;99.90;;;;;;6193617;23;20008;-87
2023/01/25 06:55:19;;;;;;;64.75;50.38;;;0.60;99.90;;;;;;6220739;23;20008;-87
2023/01/25 06:57:45;;;;;;;66.50;50.80;;;0.90;99.90;;;;;;6194297;23;20023;-88
2023/01/25 07:00:11;;;;;;;59.22;47.88;;;0.20;99.90;;;;;;6193471;23;20012;-88
2023/01/25 07:02:37;;;;;;;61.50;48.63;;;0.30;99.90;;;;;;6194794;23;20009;-87
2023/01/25 07:05:03;;;;;;;61.40;48.80;;;0.30;99.90;;;;;;6193584;23;20444;-87
2023/01/25 07:07:29;;;;;;;60.30;47.72;;;0.30;99.90;;;;;;6219390;23;20139;-87
2023/01/25 07:09:55;;;;;;;66.60;50.20;;;0.80;99.90;;;;;;6193475;23;20009;-87
2023/01/25 07:12:21;;;;;;;62.72;49.13;;;0.30;99.90;;;;;;6193303;23;20044;-88
2023/01/25 07:14:48;;;;;;;62.00;47.85;;;0.30;99.90;;;;;;6194135;23;20019;-88
2023/01/25 07:17:14;;;;;;;62.08;49.05;;;0.30;99.90;;;;;;6219431;23;20044;-87
2023/01/25 07:19:40;;;;;;;67.97;49.20;;;0.20;99.90;;;;;;6198881;23;20035;-87
2023/01/25 07:22:05;;;;;;;66.82;49.65;;;0.20;99.90;;;;;;6194409;23;20012;-87
2023/01/25 07:24:31;;;;;;;63.40;49.47;;;0.20;99.90;;;;;;6193894;23;20060;-87
2023/01/25 07:26:57;;;;;;;64.95;50.20;;;0.70;99.90;;;;;;6218278;23;20009;-86
2023/01/25 07:29:22;;;;;;;63.53;50.58;;;0.20;99.90;;;;;;6194109;23;20028;-88
2023/01/25 07:31:48;;;;;;;63.70;49.75;;;0.20;99.90;;;;;;6191350;23;20013;-88
2023/01/25 07:34:14;;;;;;;62.72;49.47;;;0.20;99.90;;;;;;6213810;23;20013;-88
2023/01/25 07:36:40;;;;;;;65.75;49.10;;;0.20;99.90;;;;;;6188266;23;20051;-88
2023/01/25 07:39:09;;;;;;;63.08;48.88;;;0.10;99.90;;;;;;6214004;23;20016;-87
2023/01/25 07:41:34;;;;;;;64.22;50.53;;;0.10;99.90;;;;;;6187949;23;20027;-88
2023/01/25 07:44:00;;;;;;;63.80;49.35;;;0.10;99.90;;;;;;6188293;23;20024;-88
2023/01/25 07:46:26;;;;;;;67.75;48.75;;;0.10;99.90;;;;;;6188473;23;20083;-87
2023/01/25 07:48:52;;;;;;;65.35;50.17;;;0.10;99.90;;;;;;6188292;23;20379;-88
2023/01/25 07:51:23;;;;;;;68.30;51.13;;;0.10;99.90;;;;;;6188232;23;20039;-88
2023/01/25 07:53:50;;;;;;;68.15;50.42;;;1.00;99.90;;;;;;6187983;23;20100;-87
2023/01/25 07:56:16;;;;;;;68.28;51.35;;;0.10;99.90;;;;;;6213477;23;20279;-88
2023/01/25 07:58:42;;;;;;;69.90;50.05;;;0.10;99.90;;;;;;6213625;23;20013;-88
2023/01/25 08:01:12;;;;;;;70.50;50.78;;;0.10;99.90;;;;;;6188502;23;20067;-88
2023/01/25 08:03:38;;;;;;;71.50;51.60;;;0.10;99.90;;;;;;6215285;23;20017;-88
2023/01/25 08:06:05;;;;;;;66.28;51.30;;;0.10;99.90;;;;;;6197178;23;20012;-88
2023/01/25 08:08:33;;;;;;;67.97;51.70;;;0.10;99.90;;;;;;6187966;23;20016;-88
2023/01/25 08:11:20;;;;;;;63.58;49.05;;;0.10;99.90;;;;;;6188182;23;20008;-88
2023/01/25 08:13:48;;;;;;;65.32;49.28;;;0.10;99.90;;;;;;6188143;23;20008;-88
2023/01/25 08:16:15;;;;;;;67.18;49.72;;;0.10;99.90;;;;;;6188620;23;20059;-88
2023/01/25 08:18:41;;;;;;;65.57;48.17;;;0.10;99.90;;;;;;6188159;23;20095;-88
2023/01/25 08:21:08;;;;;;;65.22;48.70;;;0.10;99.90;;;;;;6213294;23;20379;-88
2023/01/25 08:23:34;;;;;;;65.60;49.85;;;0.10;99.90;;;;;;6188396;23;20028;-88
2023/01/25 08:26:04;;;;;;;64.45;47.80;;;0.10;99.90;;;;;;6213794;23;20091;-88
2023/01/25 08:28:30;;;;;;;66.18;48.83;;;0.00;99.90;;;;;;6187716;23;20070;-88
2023/01/25 08:31:17;;;;;;;68.07;50.15;;;0.00;99.90;;;;;;6188273;23;20063;-88
2023/01/25 08:33:45;;;;;;;69.65;50.00;;;0.10;99.90;;;;;;6188084;23;20435;-88
2023/01/25 08:36:12;;;;;;;65.93;47.80;;;0.10;99.90;;;;;;6214596;23;20020;-88
2023/01/25 08:38:38;;;;;;;67.60;50.55;;;0.00;99.90;;;;;;6188191;23;20099;-88
2023/01/25 08:41:15;;;;;;;69.25;50.17;;;0.00;99.90;;;;;;6213181;23;20055;-88
2023/01/25 08:43:42;;;;;;;68.15;49.13;;;0.10;99.90;;;;;;6187534;23;20016;-88
2023/01/25 08:46:08;;;;;;;73.95;52.15;;;0.10;99.90;;;;;;6213562;23;20008;-88
2023/01/25 08:48:34;;;;;;;75.03;52.35;;;0.10;99.90;;;;;;6188420;23;20092;-87
2023/01/25 08:51:00;;;;;;;65.68;49.03;;;0.10;99.90;;;;;;6190299;23;20112;-87
2023/01/25 08:53:31;;;;;;;70.43;50.65;;;0.10;99.90;;;;;;6192341;23;20063;-89
2023/01/25 08:56:06;;;;;;;69.00;50.03;;;0.10;99.90;;;;;;6213258;23;20154;-88
2023/01/25 08:58:32;;;;;;;71.57;50.45;;;0.10;99.90;;;;;;6213221;23;20062;-88
2023/01/25 09:01:03;;;;;;;66.72;49.08;;;0.20;99.90;;;;;;6188036;23;20066;-87
2023/01/25 09:03:29;;;;;;;75.15;51.67;;;0.20;99.90;;;;;;6213609;23;20027;-89
2023/01/25 09:05:55;;;;;;;68.32;48.67;;;0.10;99.90;;;;;;6213551;23;20009;-89
2023/01/25 09:08:20;;;;;;;71.60;51.67;;;0.10;99.90;;;;;;6212996;23;20040;-88
2023/01/25 09:10:46;;;;;;;71.88;50.70;;;0.10;99.90;;;;;;6187654;23;20024;-88
2023/01/25 09:13:13;;;;;;;69.50;51.15;;;0.10;99.90;;;;;;6213002;23;20012;-88
2023/01/25 09:15:38;;;;;;;74.03;52.20;;;0.10;99.90;;;;;;6213775;23;20035;-88
2023/01/25 09:18:04;;;;;;;73.93;52.83;;;0.10;99.90;;;;;;6188044;23;20216;-87
2023/01/25 09:20:30;;;;;;;69.72;51.80;;;0.10;99.90;;;;;;6187915;23;20485;-88
2023/01/25 09:22:55;;;;;;;73.10;50.47;;;0.10;99.90;;;;;;6187288;23;20013;-88
2023/01/25 09:25:21;;;;;;;73.38;51.55;;;0.10;99.90;;;;;;6188175;23;20015;-88
2023/01/25 09:27:50;;;;;;;80.85;53.35;;;0.10;99.90;;;;;;6188284;23;20387;-88
2023/01/25 09:30:17;;;;;;;73.05;52.20;;;0.20;99.90;;;;;;6187577;23;20009;-88
2023/01/25 09:32:43;;;;;;;73.45;52.30;;;0.20;99.90;;;;;;6187993;23;20011;-88
2023/01/25 09:35:09;;;;;;;73.85;52.80;;;0.20;99.90;;;;;;6187917;23;20019;-88
2023/01/25 09:37:35;;;;;;;75.85;53.03;;;0.30;99.90;;;;;;6216506;23;20031;-88
2023/01/25 09:40:02;;;;;;;69.95;50.42;;;0.30;99.90;;;;;;6218894;23;20432;-88
2023/01/25 09:42:43;;;;;;;74.95;52.33;;;0.30;99.90;;;;;;6212856;23;20312;-88
2023/01/25 09:45:31;;;;;;;72.00;51.67;;;0.30;99.90;;;;;;6187748;23;20028;-88
2023/01/25 09:48:35;;;;;;;76.85;53.85;;;0.30;99.90;;;;;;6189453;23;20164;-88
2023/01/25 09:51:26;;;;;;;78.75;53.50;;;0.40;99.90;;;;;;6218556;23;20371;-88
2023/01/25 09:53:56;;;;;;;69.50;51.35;;;0.40;99.90;;;;;;6195022;23;20008;-88
2023/01/25 09:56:26;;;;;;;77.10;53.05;;;0.40;99.90;;;;;;6196346;23;20440;-88
2023/01/25 09:59:15;;;;;;;74.63;51.63;;;0.50;99.90;;;;;;6195478;23;20100;-88
2023/01/25 10:01:47;;;;;;;72.32;51.83;;;0.50;99.90;;;;;;6196440;23;20035;-87
2023/01/25 10:04:29;;;;;;;73.57;51.70;;;0.50;99.90;;;;;;6220015;23;20013;-88
2023/01/25 10:07:19;;;;;;;71.10;50.40;;;0.50;99.90;;;;;;6220562;23;20107;-87
2023/01/25 10:10:02;;;;;;;74.45;53.03;;;0.50;99.90;;;;;;6171288;23;20012;-88
2023/01/25 10:12:35;;;;;;;75.80;52.13;;;0.50;99.90;;;;;;6220862;23;20004;-88
2023/01/25 10:15:00;;;;;;;75.10;50.78;;;0.60;99.90;;;;;;6193723;23;20012;-87
2023/01/25 10:17:37;;;;;;;71.15;49.53;;;0.50;99.90;;;;;;6244731;23;20083;-88
2023/01/25 10:20:22;;;;;;;68.00;48.63;;;0.50;99.90;;;;;;6219616;23;20012;-88
2023/01/25 10:23:14;;;;;;;69.63;48.70;;;0.50;99.90;;;;;;6195132;23;20015;-87
2023/01/25 10:25:45;;;;;;;74.78;50.75;;;0.50;99.90;;;;;;6134616;23;20012;-88
2023/01/25 10:28:17;;;;;;;76.00;50.42;;;0.50;99.90;;;;;;6193436;23;20017;-87
2023/01/25 10:31:05;;;;;;;74.82;50.95;;;0.50;99.90;;;;;;6220485;23;20013;-88
2023/01/25 10:33:36;;;;;;;73.90;50.78;;;0.50;99.90;;;;;;6219429;23;20012;-88
2023/01/25 10:36:04;;;;;;;68.40;46.92;;;0.50;99.90;;;;;;6195086;23;20044;-87
2023/01/25 10:38:41;;;;;;;68.07;46.58;;;0.40;99.90;;;;;;6220277;23;20116;-88
2023/01/25 10:41:19;;;;;;;63.50;44.22;;;0.50;99.90;;;;;;6221180;23;20092;-89
2023/01/25 10:43:45;;;;;;;67.28;45.25;;;0.50;99.90;;;;;;6194100;23;20013;-88
2023/01/25 10:46:21;;;;;;;67.15;44.88;;;0.50;99.90;;;;;;6192490;23;20100;-88
2023/01/25 10:48:47;;;;;;;67.38;45.35;;;0.50;99.90;;;;;;6218414;23;20411;-88
2023/01/25 10:51:31;;;;;;;64.70;44.55;;;1.10;99.90;;;;;;6194079;23;20028;-88
2023/01/25 10:54:02;;;;;;;68.00;45.80;;;0.50;99.90;;;;;;6193205;23;20015;-87
2023/01/25 10:56:29;;;;;;;65.63;44.50;;;0.50;99.90;;;;;;6218159;23;20009;-87
2023/01/25 10:59:16;;;;;;;68.03;45.50;;;0.50;99.90;;;;;;6217676;23;20016;-88
2023/01/25 11:01:42;;;;;;;65.80;45.67;;;0.50;99.90;;;;;;6191782;23;20023;-88
2023/01/25 11:04:33;;;;;;;69.95;47.15;;;0.50;99.90;;;;;;6192062;23;20091;-88
2023/01/25 11:07:01;;;;;;;71.57;45.53;;;0.60;99.90;;;;;;6217931;23;20058;-88
2023/01/25 11:09:35;;;;;;;69.63;45.92;;;0.60;99.90;;;;;;6218155;23;20012;-88
2023/01/25 11:12:17;;;;;;;76.75;47.35;;;0.60;99.90;;;;;;6198419;23;20016;-87
2023/01/25 11:14:43;;;;;;;71.40;45.88;;;0.60;99.90;;;;;;6221159;23;20012;-88
2023/01/25 11:17:26;;;;;;;69.95;46.75;;;0.60;99.90;;;;;;6193242;23;20013;-88
2023/01/25 11:20:17;;;;;;;66.40;44.03;;;0.70;99.90;;;;;;6194494;23;20015;-88
2023/01/25 11:22:55;;;;;;;67.57;44.88;;;0.70;99.90;;;;;;6193857;23;20339;-88
2023/01/25 11:25:31;;;;;;;70.45;45.83;;;0.70;99.90;;;;;;6193038;23;20020;-88
2023/01/25 11:28:18;;;;;;;72.05;48.17;;;0.70;99.90;;;;;;6220437;23;20008;-88
2023/01/25 11:30:44;;;;;;;73.85;46.45;;;0.70;99.90;;;;;;6194205;23;20055;-88
2023/01/25 11:33:12;;;;;;;80.85;47.42;;;0.70;99.90;;;;;;6192734;23;20013;-89
2023/01/25 11:36:03;;;;;;;68.65;46.45;;;0.70;99.90;;;;;;6219163;23;20373;-89
2023/01/25 11:38:29;;;;;;;74.30;46.70;;;0.70;99.90;;;;;;6218968;23;20021;-88
2023/01/25 11:41:04;;;;;;;73.95;45.60;;;0.70;99.90;;;;;;6193329;23;20384;-89
2023/01/25 11:44:09;;;;;;;78.53;47.95;;;0.70;99.90;;;;;;6192338;23;20017;-88
2023/01/25 11:47:12;;;;;;;68.35;44.00;;;0.70;99.90;;;;;;6150105;23;20059;-88
2023/01/25 11:49:56;;;;;;;74.82;46.05;;;0.70;99.90;;;;;;6194044;23;20027;-89
2023/01/25 11:52:58;;;;;;;71.10;45.35;;;0.80;99.90;;;;;;6193064;23;20072;-89
2023/01/25 11:56:03;;;;;;;77.75;47.00;;;0.80;99.90;;;;;;6218805;23;20023;-89
2023/01/25 11:58:45;;;;;;;74.93;46.05;;;0.80;99.90;;;;;;6196103;23;20047;-88
2023/01/25 12:01:33;;;;;;;80.60;48.97;;;0.80;99.90;;;;;;6196864;23;20008;-89
2023/01/25 12:04:11;;;;;;;80.68;47.88;;;0.80;99.90;;;;;;6194053;23;20132;-88
2023/01/25 12:06:57;;;;;;;69.03;44.90;;;0.80;99.90;;;;;;6192935;23;20016;-88
2023/01/25 12:09:36;;;;;;;76.20;47.20;;;0.80;99.90;;;;;;6192911;23;20345;-88
2023/01/25 12:12:35;;;;;;;73.13;47.72;;;0.80;99.90;;;;;;6193048;23;20013;-87
2023/01/25 12:15:26;;;;;;;78.25;46.67;;;0.80;99.90;;;;;;6192205;23;20031;-87
2023/01/25 12:18:32;;;;;;;75.82;47.25;;;0.80;99.90;;;;;;6192828;23;20340;-88
2023/01/25 12:21:19;;;;;;;75.53;46.05;;;0.80;99.90;;;;;;6193420;23;20356;-87
2023/01/25 12:23:59;;;;;;;76.43;45.00;;;0.70;99.90;;;;;;6189620;23;20428;-88
2023/01/25 12:26:33;;;;;;;67.25;42.83;;;0.70;99.90;;;;;;6213649;23;20087;-88
2023/01/25 12:28:58;;;;;;;;;;;0.70;99.90;;;;;;6188916;23;20083;-89
2023/01/25 12:31:32;;;;;;;70.88;44.65;;;0.70;99.90;;;;;;6188121;23;19912;-88
2023/01/25 12:34:07;;;;;;;71.40;44.38;;;0.80;99.90;;;;;;6213724;23;20020;-89
2023/01/25 12:36:52;;;;;;;75.28;44.97;;;0.80;99.90;;;;;;6188096;23;20016;-88
2023/01/25 12:39:29;;;;;;;74.13;44.92;;;0.80;99.90;;;;;;6187685;23;20019;-89
2023/01/25 12:42:03;;;;;;;69.15;44.03;;;0.90;99.90;;;;;;6213513;23;20082;-88
2023/01/25 12:45:06;;;;;;;73.72;43.67;;;0.90;99.90;;;;;;6188833;23;20465;-88
2023/01/25 12:47:45;;;;;;;69.30;43.63;;;1.00;99.90;;;;;;6148991;23;20013;-88
2023/01/25 12:50:32;;;;;;;71.38;42.25;;;1.10;99.90;;;;;;6188019;23;20009;-88
2023/01/25 12:53:12;;;;;;;68.00;41.13;;;1.20;99.90;;;;;;6188160;23;20048;-88
2023/01/25 12:55:39;;;;;;;69.80;41.63;;;1.20;99.90;;;;;;6187957;23;20088;-89